createdAt,value
2022-08-19T00:02:59.184Z,80.82
2022-08-19T00:07:01.458Z,80.45
2022-08-19T00:11:03.567Z,80.78
2022-08-19T00:15:07.807Z,80.49
2022-08-19T00:19:14.570Z,80.45
2022-08-19T00:23:17.050Z,81.17
2022-08-19T00:27:26.179Z,81.20
2022-08-19T00:31:29.091Z,81.22
2022-08-19T00:35:30.862Z,81.66
2022-08-19T00:39:32.585Z,81.72
2022-08-19T00:43:34.838Z,81.95
2022-08-19T00:48:06.077Z,81.36
2022-08-19T00:52:15.993Z,81.67
2022-08-19T00:56:18.405Z,80.67
2022-08-19T01:00:32.960Z,80.49
2022-08-19T01:04:43.883Z,80.81
2022-08-19T01:08:57.915Z,79.33
2022-08-19T01:13:18.522Z,78.79
2022-08-19T01:21:54.140Z,78.36
2022-08-19T01:26:02.437Z,77.91
2022-08-19T01:30:34.020Z,78.17
2022-08-19T01:34:39.948Z,78.40
2022-08-19T01:38:44.414Z,78.57
2022-08-19T01:42:46.330Z,78.79
2022-08-19T01:46:49.431Z,78.85
2022-08-19T01:50:51.108Z,79.46
2022-08-19T01:54:53.068Z,78.69
2022-08-19T01:59:02.930Z,79.94
2022-08-19T02:03:04.579Z,79.68
2022-08-19T02:07:08.824Z,80.18
2022-08-19T02:11:27.580Z,80.94
2022-08-19T02:15:29.338Z,80.94
2022-08-19T02:19:33.541Z,80.99
2022-08-19T02:23:35.729Z,81.42
2022-08-19T02:27:52.488Z,81.75
2022-08-19T02:31:54.614Z,81.88
2022-08-19T02:35:56.396Z,82.21
2022-08-19T02:40:04.383Z,82.59
2022-08-19T02:44:29.068Z,82.53
2022-08-19T02:48:55.719Z,83.29
2022-08-19T02:52:58.477Z,83.47
2022-08-19T02:57:00.181Z,84.14
2022-08-19T03:01:03.311Z,84.47
2022-08-19T03:05:10.569Z,85.25
2022-08-19T03:09:12.636Z,85.59
2022-08-19T03:13:18.893Z,86.07
2022-08-19T03:17:21.525Z,86.48
2022-08-19T03:21:26.157Z,87.14
2022-08-19T03:25:27.861Z,87.49
2022-08-19T03:29:32.681Z,87.82
2022-08-19T03:33:35.334Z,87.55
2022-08-19T03:37:37.810Z,88.14
2022-08-19T03:41:48.153Z,88.32
2022-08-19T03:45:50.816Z,88.92
2022-08-19T03:49:52.496Z,88.76
2022-08-19T03:53:56.176Z,88.58
2022-08-19T03:57:59.370Z,88.85
2022-08-19T04:02:10.392Z,88.47
2022-08-19T04:06:17.198Z,88.95
2022-08-19T04:10:18.864Z,89.19
2022-08-19T04:14:23.677Z,89.49
2022-08-19T04:18:25.339Z,89.98
2022-08-19T04:22:26.971Z,89.46
2022-08-19T04:26:33.979Z,89.82
2022-08-19T04:30:48.598Z,89.90
2022-08-19T04:35:03.209Z,89.67
2022-08-19T04:39:17.479Z,90.08
2022-08-19T04:43:19.201Z,90.74
2022-08-19T04:47:47.403Z,90.54
2022-08-19T04:51:44.923Z,90.80
2022-08-19T04:55:46.631Z,90.63
2022-08-19T04:59:49.447Z,91.12
2022-08-19T05:03:51.592Z,90.84
2022-08-19T05:07:53.350Z,90.54
2022-08-19T05:11:55.055Z,90.26
2022-08-19T05:15:58.678Z,90.43
2022-08-19T05:20:20.228Z,90.14
2022-08-19T05:24:23.714Z,90.44
2022-08-19T05:28:25.431Z,90.07
2022-08-19T05:32:27.208Z,89.69
2022-08-19T05:36:34.118Z,89.60
2022-08-19T05:40:39.491Z,88.68
2022-08-19T05:44:45.183Z,87.95
2022-08-19T05:48:47.042Z,87.51
2022-08-19T05:52:50.141Z,86.88
2022-08-19T05:56:54.099Z,86.67
2022-08-19T06:00:55.893Z,86.06
2022-08-19T06:04:57.729Z,85.59
2022-08-19T06:08:59.975Z,85.44
2022-08-19T06:13:01.610Z,84.73
2022-08-19T06:17:07.139Z,83.98
2022-08-19T06:21:09.381Z,83.03
2022-08-19T06:25:14.102Z,82.27
2022-08-19T06:29:23.782Z,81.54
2022-08-19T06:33:31.635Z,80.49
2022-08-19T06:37:43.747Z,79.10
2022-08-19T06:41:52.439Z,78.78
2022-08-19T06:45:56.574Z,78.06
2022-08-19T06:50:08.598Z,77.64
2022-08-19T06:58:59.023Z,75.35
2022-08-19T07:03:04.523Z,74.72
2022-08-19T07:07:21.298Z,74.12
2022-08-19T07:11:23.435Z,73.79
2022-08-19T07:15:25.909Z,73.39
2022-08-19T07:19:31.110Z,73.17
2022-08-19T07:23:33.506Z,71.66
2022-08-19T07:27:35.478Z,71.40
2022-08-19T07:31:38.060Z,70.26
2022-08-19T07:35:40.421Z,69.79
2022-08-19T07:39:42.255Z,68.63
2022-08-19T07:43:44.613Z,66.84
2022-08-19T07:47:58.621Z,66.61
2022-08-19T07:52:09.042Z,65.02
2022-08-19T07:56:11.281Z,64.81
2022-08-19T08:00:21.685Z,63.88
2022-08-19T08:05:02.075Z,61.92
2022-08-19T08:09:12.253Z,62.16
2022-08-19T08:13:14.251Z,61.59
2022-08-19T08:17:17.547Z,61.32
2022-08-19T08:21:47.931Z,61.65
2022-08-19T08:25:50.308Z,60.81
2022-08-19T08:29:52.017Z,59.55
2022-08-19T08:33:57.183Z,57.83
2022-08-19T08:38:00.194Z,57.82
2022-08-19T08:42:28.642Z,57.58
2022-08-19T08:47:02.559Z,55.39
2022-08-19T08:51:10.164Z,53.41
2022-08-19T08:55:16.278Z,52.22
2022-08-19T08:59:24.053Z,51.02
2022-08-19T09:03:31.671Z,51.86
2022-08-19T09:07:57.950Z,52.10
2022-08-19T09:12:29.512Z,51.52
2022-08-19T09:16:31.245Z,51.80
2022-08-19T09:20:33.384Z,49.90
2022-08-19T09:24:36.812Z,50.34
2022-08-19T09:28:38.423Z,49.66
2022-08-19T09:32:43.344Z,49.37
2022-08-19T09:36:44.958Z,49.67
2022-08-19T09:40:46.670Z,49.62
2022-08-19T09:44:53.146Z,49.76
2022-08-19T09:48:55.519Z,49.59
2022-08-19T09:52:58.074Z,49.60
2022-08-19T09:57:04.618Z,47.18
2022-08-19T10:01:10.597Z,47.54
2022-08-19T10:05:31.107Z,48.54
2022-08-19T10:09:34.419Z,48.80
2022-08-19T10:13:42.392Z,48.59
2022-08-19T10:17:54.959Z,49.28
2022-08-19T10:22:00.306Z,49.11
2022-08-19T10:26:02.449Z,47.22
2022-08-19T10:30:04.863Z,46.33
2022-08-19T10:34:17.551Z,45.36
2022-08-19T10:38:31.690Z,43.25
2022-08-19T10:42:36.136Z,43.42
2022-08-19T10:46:45.145Z,43.37
2022-08-19T10:51:22.647Z,42.79
2022-08-19T10:55:43.877Z,41.46
2022-08-19T10:59:45.601Z,41.24
2022-08-19T11:03:47.181Z,41.42
2022-08-19T11:07:52.406Z,42.00
2022-08-19T11:11:55.002Z,40.34
2022-08-19T11:16:01.795Z,39.84
2022-08-19T11:20:07.746Z,39.34
2022-08-19T11:24:12.890Z,38.47
2022-08-19T11:28:14.616Z,38.30
2022-08-19T11:32:16.894Z,37.83
2022-08-19T11:36:20.614Z,37.82
2022-08-19T11:40:22.237Z,36.67
2022-08-19T11:44:23.932Z,37.14
2022-08-19T11:48:26.596Z,36.23
2022-08-19T11:52:28.403Z,36.00
2022-08-19T11:56:30.114Z,35.90
2022-08-19T12:00:31.726Z,36.35
2022-08-19T12:04:33.319Z,36.44
2022-08-19T12:08:35.384Z,36.59
2022-08-19T12:12:41.442Z,34.11
2022-08-19T12:16:49.102Z,33.60
2022-08-19T12:20:57.980Z,32.22
2022-08-19T12:24:59.553Z,32.04
2022-08-19T12:29:01.242Z,34.53
2022-08-19T12:33:03.016Z,33.06
2022-08-19T12:37:05.858Z,34.20
2022-08-19T12:41:10.556Z,31.85
2022-08-19T12:45:14.477Z,30.64
2022-08-19T12:49:51.934Z,30.79
2022-08-19T12:53:39.145Z,29.68
2022-08-19T12:57:41.761Z,28.93
2022-08-19T13:01:44.761Z,28.88
2022-08-19T13:05:46.376Z,29.61
2022-08-19T13:09:47.898Z,30.22
2022-08-19T13:13:52.047Z,30.99
2022-08-19T13:17:54.889Z,29.13
2022-08-19T13:22:00.035Z,29.91
2022-08-19T13:26:05.929Z,30.48
2022-08-19T13:30:29.394Z,30.06
2022-08-19T13:34:36.607Z,27.07
2022-08-19T13:38:39.018Z,25.62
2022-08-19T13:42:41.487Z,23.63
2022-08-19T13:46:46.106Z,23.32
2022-08-19T13:50:50.283Z,23.45
2022-08-19T13:54:51.879Z,23.78
2022-08-19T13:58:54.781Z,23.86
2022-08-19T14:03:01.048Z,22.14
2022-08-19T14:07:02.621Z,21.49
2022-08-19T14:11:06.681Z,21.30
2022-08-19T14:15:11.093Z,21.50
2022-08-19T14:19:12.715Z,22.87
2022-08-19T14:23:14.723Z,23.33
2022-08-19T14:27:16.347Z,24.25
2022-08-19T14:31:20.224Z,24.27
2022-08-19T14:35:23.002Z,25.47
2022-08-19T14:39:24.738Z,25.43
2022-08-19T14:43:26.358Z,26.09
2022-08-19T14:47:28.251Z,26.38
2022-08-19T14:51:30.196Z,26.96
2022-08-19T14:55:32.802Z,27.20
2022-08-19T14:59:36.204Z,26.77
2022-08-19T15:03:38.217Z,26.73
2022-08-19T15:07:40.846Z,26.88
2022-08-19T15:11:43.703Z,27.11
2022-08-19T15:15:46.431Z,27.62
2022-08-19T15:19:48.085Z,28.26
2022-08-19T15:23:51.157Z,28.43
2022-08-19T15:27:53.922Z,28.16
2022-08-19T15:31:58.928Z,27.86
2022-08-19T15:36:00.529Z,28.28
2022-08-19T15:40:02.398Z,28.04
2022-08-19T15:44:09.051Z,28.07
2022-08-19T15:48:10.663Z,27.92
2022-08-19T15:52:12.279Z,28.26
2022-08-19T15:56:15.513Z,27.80
2022-08-19T16:00:35.957Z,27.75
2022-08-19T16:04:55.958Z,28.06
2022-08-19T16:09:02.983Z,27.94
2022-08-19T16:13:06.135Z,28.46
2022-08-19T16:17:11.603Z,28.57
2022-08-19T16:21:17.354Z,28.58
2022-08-19T16:25:18.928Z,28.65
2022-08-19T16:29:34.563Z,28.74
2022-08-19T16:33:41.169Z,28.94
2022-08-19T16:37:42.778Z,28.78
2022-08-19T16:41:46.083Z,29.28
2022-08-19T16:45:54.849Z,29.86
2022-08-19T16:49:56.563Z,29.15
2022-08-19T16:53:58.163Z,30.18
2022-08-19T16:58:04.477Z,29.95
2022-08-19T17:02:06.056Z,29.78
2022-08-19T17:06:16.159Z,30.35
2022-08-19T17:10:22.403Z,30.50
2022-08-19T17:14:24.008Z,30.53
2022-08-19T17:18:26.422Z,30.72
2022-08-19T17:22:35.795Z,30.81
2022-08-19T17:26:37.688Z,30.82
2022-08-19T17:30:39.322Z,31.25
2022-08-19T17:34:41.298Z,31.31
2022-08-19T17:38:42.928Z,31.20
2022-08-19T17:42:45.454Z,31.66
2022-08-19T17:46:47.160Z,32.01
2022-08-19T17:50:48.751Z,32.35
2022-08-19T17:54:50.372Z,32.49
2022-08-19T17:58:59.571Z,32.41
2022-08-19T18:03:04.924Z,32.32
2022-08-19T18:07:09.229Z,32.30
2022-08-19T18:11:11.675Z,32.45
2022-08-19T18:15:13.810Z,32.97
2022-08-19T18:19:15.443Z,32.83
2022-08-19T18:23:45.468Z,33.00
2022-08-19T18:27:39.025Z,33.44
2022-08-19T18:31:40.691Z,33.53
2022-08-19T18:35:48.684Z,33.50
2022-08-19T18:40:09.117Z,33.59
2022-08-19T18:44:29.272Z,33.65
2022-08-19T18:48:49.400Z,33.42
2022-08-19T18:52:50.983Z,34.11
2022-08-19T18:56:55.766Z,34.25
2022-08-19T19:00:58.739Z,34.28
2022-08-19T19:05:03.855Z,34.93
2022-08-19T19:09:15.479Z,35.36
2022-08-19T19:13:17.087Z,35.70
2022-08-19T19:17:22.972Z,35.77
2022-08-19T19:21:26.148Z,36.57
2022-08-19T19:25:27.769Z,36.86
2022-08-19T19:29:52.281Z,37.08
2022-08-19T19:33:55.847Z,37.40
2022-08-19T19:37:58.138Z,37.45
2022-08-19T19:42:00.290Z,37.66
2022-08-19T19:46:01.936Z,37.73
2022-08-19T19:50:14.841Z,37.66
2022-08-19T19:54:22.968Z,37.99
2022-08-19T19:58:30.492Z,38.82
2022-08-19T20:02:32.147Z,38.70
2022-08-19T20:06:34.092Z,39.27
2022-08-19T20:10:41.129Z,39.57
2022-08-19T20:14:42.708Z,39.69
2022-08-19T20:18:44.451Z,39.89
2022-08-19T20:22:47.568Z,40.33
2022-08-19T20:26:53.435Z,40.61
2022-08-19T20:30:55.858Z,40.86
2022-08-19T20:35:01.229Z,41.75
2022-08-19T20:39:04.985Z,41.76
2022-08-19T20:43:12.968Z,41.83
2022-08-19T20:47:14.795Z,42.54
2022-08-19T20:51:17.042Z,42.98
2022-08-19T20:55:18.724Z,42.69
2022-08-19T20:59:21.969Z,43.08
2022-08-19T21:03:24.937Z,43.13
2022-08-19T21:07:38.844Z,43.66
2022-08-19T21:11:41.537Z,44.09
2022-08-19T21:15:44.500Z,44.48
2022-08-19T21:19:47.027Z,44.65
2022-08-19T21:23:49.736Z,45.63
2022-08-19T21:27:55.800Z,46.60
2022-08-19T21:32:02.133Z,47.27
2022-08-19T21:36:05.271Z,48.07
2022-08-19T21:40:08.161Z,48.89
2022-08-19T21:44:10.150Z,49.13
2022-08-19T21:48:14.739Z,49.31
2022-08-19T21:52:24.972Z,50.13
2022-08-19T21:56:26.673Z,50.33
2022-08-19T22:00:32.225Z,51.20
2022-08-19T22:04:34.651Z,51.64
2022-08-19T22:08:37.023Z,52.03
2022-08-19T22:12:47.283Z,52.13
2022-08-19T22:16:59.386Z,52.79
2022-08-19T22:21:02.437Z,53.28
2022-08-19T22:25:09.557Z,53.99
2022-08-19T22:29:11.562Z,54.21
2022-08-19T22:33:21.294Z,54.48
2022-08-19T22:37:23.474Z,54.78
2022-08-19T22:41:25.562Z,55.02
2022-08-19T22:45:28.208Z,55.20
2022-08-19T22:49:32.416Z,55.63
2022-08-19T22:53:43.731Z,56.57
2022-08-19T22:57:45.938Z,56.69
2022-08-19T23:01:47.714Z,56.54
2022-08-19T23:06:00.230Z,57.35
2022-08-19T23:10:08.902Z,57.52
2022-08-19T23:14:12.675Z,57.36
2022-08-19T23:18:14.991Z,57.92
2022-08-19T23:22:24.859Z,57.82
2022-08-19T23:26:33.868Z,57.89
2022-08-19T23:31:09.075Z,58.20
2022-08-19T23:35:13.927Z,58.10
2022-08-19T23:39:28.030Z,58.70
2022-08-19T23:43:37.005Z,59.29
2022-08-19T23:48:00.224Z,59.18
2022-08-19T23:52:18.701Z,59.11
2022-08-19T23:56:28.970Z,60.35
